<?xml version="1.0" encoding="UTF-8" standalone="no" ?>
<gpx xmlns="http://www.topografix.com/GPX/1/1" xmlns:xsi="http://www.w3.org/2001/XMLSchema-instance" xsi:schemaLocation="http://www.topografix.com/GPX/1/1 http://www.topografix.com/GPX/1/1/gpx.xsd" version="1.1" creator="VisuGPX - https://www.visugpx.com">
  <metadata>
    <name>Valsonne</name>
  </metadata>
  <trk>
    <name><![CDATA[Valsonne 1-20992458]]></name>
    <extensions>
      <line xmlns="http://www.topografix.com/GPX/gpx_style/0/2">
        <color>0000FF</color>
        <width>4</width>
      </line>
    </extensions>
    <trkseg>
      <trkpt lat="45.94372" lon="4.43421">
        <ele>445</ele>
        <time>2025-05-05T14:09:53Z</time>
      </trkpt>
      <trkpt lat="45.94334" lon="4.43422">
        <ele>442</ele>
        <time>2025-05-05T14:10:44Z</time>
      </trkpt>
      <trkpt lat="45.94371" lon="4.43299">
        <ele>442</ele>
        <time>2025-05-05T14:12:48Z</time>
      </trkpt>
      <trkpt lat="45.94338" lon="4.43273">
        <ele>441</ele>
        <time>2025-05-05T14:13:38Z</time>
      </trkpt>
      <trkpt lat="45.94285" lon="4.43268">
        <ele>443</ele>
        <time>2025-05-05T14:14:49Z</time>
      </trkpt>
      <trkpt lat="45.94248" lon="4.43261">
        <ele>445</ele>
        <time>2025-05-05T14:15:39Z</time>
      </trkpt>
      <trkpt lat="45.94219" lon="4.43235">
        <ele>446</ele>
        <time>2025-05-05T14:16:25Z</time>
      </trkpt>
      <trkpt lat="45.94122" lon="4.43112">
        <ele>466</ele>
        <time>2025-05-05T14:19:17Z</time>
      </trkpt>
      <trkpt lat="45.9411" lon="4.43087">
        <ele>470</ele>
        <time>2025-05-05T14:19:45Z</time>
      </trkpt>
      <trkpt lat="45.94107" lon="4.43049">
        <ele>477</ele>
        <time>2025-05-05T14:20:21Z</time>
      </trkpt>
      <trkpt lat="45.9412" lon="4.43009">
        <ele>488</ele>
        <time>2025-05-05T14:21:02Z</time>
      </trkpt>
      <trkpt lat="45.94126" lon="4.42965">
        <ele>497</ele>
        <time>2025-05-05T14:21:43Z</time>
      </trkpt>
      <trkpt lat="45.94087" lon="4.4295">
        <ele>491</ele>
        <time>2025-05-05T14:22:37Z</time>
      </trkpt>
      <trkpt lat="45.94055" lon="4.42967">
        <ele>495</ele>
        <time>2025-05-05T14:23:23Z</time>
      </trkpt>
      <trkpt lat="45.94052" lon="4.42916">
        <ele>502</ele>
        <time>2025-05-05T14:24:10Z</time>
      </trkpt>
      <trkpt lat="45.94042" lon="4.42857">
        <ele>512</ele>
        <time>2025-05-05T14:25:07Z</time>
      </trkpt>
      <trkpt lat="45.94012" lon="4.4274">
        <ele>534</ele>
        <time>2025-05-05T14:27:02Z</time>
      </trkpt>
      <trkpt lat="45.94012" lon="4.42717">
        <ele>539</ele>
        <time>2025-05-05T14:27:24Z</time>
      </trkpt>
      <trkpt lat="45.93959" lon="4.42558">
        <ele>570</ele>
        <time>2025-05-05T14:30:07Z</time>
      </trkpt>
      <trkpt lat="45.93937" lon="4.42453">
        <ele>580</ele>
        <time>2025-05-05T14:31:49Z</time>
      </trkpt>
      <trkpt lat="45.93922" lon="4.42415">
        <ele>580</ele>
        <time>2025-05-05T14:32:30Z</time>
      </trkpt>
      <trkpt lat="45.9389" lon="4.42354">
        <ele>584</ele>
        <time>2025-05-05T14:33:41Z</time>
      </trkpt>
      <trkpt lat="45.93872" lon="4.42319">
        <ele>588</ele>
        <time>2025-05-05T14:34:21Z</time>
      </trkpt>
      <trkpt lat="45.9385" lon="4.42296">
        <ele>594</ele>
        <time>2025-05-05T14:34:57Z</time>
      </trkpt>
      <trkpt lat="45.93688" lon="4.42185">
        <ele>633</ele>
        <time>2025-05-05T14:38:57Z</time>
      </trkpt>
      <trkpt lat="45.93651" lon="4.4214">
        <ele>642</ele>
        <time>2025-05-05T14:40:01Z</time>
      </trkpt>
      <trkpt lat="45.93652" lon="4.42124">
        <ele>646</ele>
        <time>2025-05-05T14:40:16Z</time>
      </trkpt>
      <trkpt lat="45.93548" lon="4.42055">
        <ele>655</ele>
        <time>2025-05-05T14:42:49Z</time>
      </trkpt>
      <trkpt lat="45.93511" lon="4.42031">
        <ele>655</ele>
        <time>2025-05-05T14:43:43Z</time>
      </trkpt>
      <trkpt lat="45.9347" lon="4.42017">
        <ele>652</ele>
        <time>2025-05-05T14:44:40Z</time>
      </trkpt>
      <trkpt lat="45.935" lon="4.41891">
        <ele>658</ele>
        <time>2025-05-05T14:46:43Z</time>
      </trkpt>
      <trkpt lat="45.93524" lon="4.41714">
        <ele>658</ele>
        <time>2025-05-05T14:49:31Z</time>
      </trkpt>
      <trkpt lat="45.9353" lon="4.41577">
        <ele>659</ele>
        <time>2025-05-05T14:51:38Z</time>
      </trkpt>
      <trkpt lat="45.93518" lon="4.41464">
        <ele>657</ele>
        <time>2025-05-05T14:53:24Z</time>
      </trkpt>
      <trkpt lat="45.93525" lon="4.41421">
        <ele>659</ele>
        <time>2025-05-05T14:54:05Z</time>
      </trkpt>
      <trkpt lat="45.93547" lon="4.41405">
        <ele>659</ele>
        <time>2025-05-05T14:54:38Z</time>
      </trkpt>
      <trkpt lat="45.93624" lon="4.4141">
        <ele>663</ele>
        <time>2025-05-05T14:56:21Z</time>
      </trkpt>
      <trkpt lat="45.93692" lon="4.41444">
        <ele>672</ele>
        <time>2025-05-05T14:57:57Z</time>
      </trkpt>
      <trkpt lat="45.93737" lon="4.414">
        <ele>672</ele>
        <time>2025-05-05T14:59:09Z</time>
      </trkpt>
      <trkpt lat="45.93781" lon="4.41335">
        <ele>680</ele>
        <time>2025-05-05T15:00:34Z</time>
      </trkpt>
      <trkpt lat="45.93782" lon="4.41281">
        <ele>678</ele>
        <time>2025-05-05T15:01:24Z</time>
      </trkpt>
      <trkpt lat="45.93766" lon="4.41314">
        <ele>673</ele>
        <time>2025-05-05T15:02:01Z</time>
      </trkpt>
      <trkpt lat="45.93745" lon="4.41308">
        <ele>666</ele>
        <time>2025-05-05T15:02:30Z</time>
      </trkpt>
      <trkpt lat="45.93699" lon="4.41276">
        <ele>654</ele>
        <time>2025-05-05T15:03:38Z</time>
      </trkpt>
      <trkpt lat="45.9361" lon="4.41246">
        <ele>638</ele>
        <time>2025-05-05T15:05:40Z</time>
      </trkpt>
      <trkpt lat="45.93517" lon="4.41175">
        <ele>622</ele>
        <time>2025-05-05T15:08:00Z</time>
      </trkpt>
      <trkpt lat="45.93497" lon="4.41145">
        <ele>619</ele>
        <time>2025-05-05T15:08:39Z</time>
      </trkpt>
      <trkpt lat="45.93477" lon="4.41135">
        <ele>616</ele>
        <time>2025-05-05T15:09:07Z</time>
      </trkpt>
      <trkpt lat="45.93475" lon="4.41115">
        <ele>616</ele>
        <time>2025-05-05T15:09:26Z</time>
      </trkpt>
      <trkpt lat="45.9347" lon="4.41093">
        <ele>615</ele>
        <time>2025-05-05T15:09:47Z</time>
      </trkpt>
      <trkpt lat="45.9345" lon="4.41065">
        <ele>612</ele>
        <time>2025-05-05T15:10:25Z</time>
      </trkpt>
      <trkpt lat="45.93389" lon="4.40979">
        <ele>598</ele>
        <time>2025-05-05T15:12:19Z</time>
      </trkpt>
      <trkpt lat="45.93385" lon="4.40909">
        <ele>597</ele>
        <time>2025-05-05T15:13:24Z</time>
      </trkpt>
      <trkpt lat="45.93396" lon="4.40863">
        <ele>598</ele>
        <time>2025-05-05T15:14:09Z</time>
      </trkpt>
      <trkpt lat="45.93417" lon="4.4081">
        <ele>601</ele>
        <time>2025-05-05T15:15:06Z</time>
      </trkpt>
      <trkpt lat="45.93436" lon="4.40727">
        <ele>599</ele>
        <time>2025-05-05T15:16:27Z</time>
      </trkpt>
      <trkpt lat="45.93469" lon="4.40636">
        <ele>603</ele>
        <time>2025-05-05T15:18:02Z</time>
      </trkpt>
      <trkpt lat="45.93472" lon="4.40609">
        <ele>605</ele>
        <time>2025-05-05T15:18:27Z</time>
      </trkpt>
      <trkpt lat="45.93459" lon="4.40573">
        <ele>602</ele>
        <time>2025-05-05T15:19:05Z</time>
      </trkpt>
      <trkpt lat="45.93513" lon="4.40398">
        <ele>606</ele>
        <time>2025-05-05T15:22:03Z</time>
      </trkpt>
      <trkpt lat="45.93577" lon="4.40236">
        <ele>613</ele>
        <time>2025-05-05T15:24:56Z</time>
      </trkpt>
      <trkpt lat="45.93607" lon="4.4018">
        <ele>618</ele>
        <time>2025-05-05T15:26:01Z</time>
      </trkpt>
      <trkpt lat="45.9364" lon="4.40149">
        <ele>620</ele>
        <time>2025-05-05T15:26:54Z</time>
      </trkpt>
      <trkpt lat="45.9367" lon="4.4014">
        <ele>621</ele>
        <time>2025-05-05T15:27:35Z</time>
      </trkpt>
      <trkpt lat="45.93708" lon="4.40125">
        <ele>628</ele>
        <time>2025-05-05T15:28:27Z</time>
      </trkpt>
      <trkpt lat="45.93694" lon="4.40081">
        <ele>625</ele>
        <time>2025-05-05T15:29:12Z</time>
      </trkpt>
      <trkpt lat="45.93676" lon="4.40064">
        <ele>622</ele>
        <time>2025-05-05T15:29:41Z</time>
      </trkpt>
      <trkpt lat="45.93667" lon="4.40021">
        <ele>623</ele>
        <time>2025-05-05T15:30:23Z</time>
      </trkpt>
      <trkpt lat="45.93645" lon="4.40006">
        <ele>629</ele>
        <time>2025-05-05T15:30:55Z</time>
      </trkpt>
      <trkpt lat="45.93633" lon="4.39964">
        <ele>639</ele>
        <time>2025-05-05T15:31:37Z</time>
      </trkpt>
      <trkpt lat="45.93618" lon="4.39934">
        <ele>647</ele>
        <time>2025-05-05T15:32:12Z</time>
      </trkpt>
      <trkpt lat="45.93601" lon="4.39916">
        <ele>652</ele>
        <time>2025-05-05T15:32:40Z</time>
      </trkpt>
      <trkpt lat="45.9361" lon="4.3983">
        <ele>660</ele>
        <time>2025-05-05T15:34:00Z</time>
      </trkpt>
      <trkpt lat="45.93564" lon="4.39892">
        <ele>664</ele>
        <time>2025-05-05T15:35:25Z</time>
      </trkpt>
      <trkpt lat="45.93513" lon="4.39932">
        <ele>672</ele>
        <time>2025-05-05T15:36:42Z</time>
      </trkpt>
      <trkpt lat="45.93477" lon="4.39938">
        <ele>680</ele>
        <time>2025-05-05T15:37:30Z</time>
      </trkpt>
      <trkpt lat="45.9343" lon="4.3992">
        <ele>695</ele>
        <time>2025-05-05T15:38:35Z</time>
      </trkpt>
      <trkpt lat="45.93371" lon="4.3998">
        <ele>706</ele>
        <time>2025-05-05T15:40:12Z</time>
      </trkpt>
      <trkpt lat="45.93329" lon="4.40029">
        <ele>711</ele>
        <time>2025-05-05T15:41:24Z</time>
      </trkpt>
      <trkpt lat="45.93259" lon="4.40099">
        <ele>704</ele>
        <time>2025-05-05T15:43:18Z</time>
      </trkpt>
      <trkpt lat="45.9321" lon="4.40112">
        <ele>705</ele>
        <time>2025-05-05T15:44:24Z</time>
      </trkpt>
      <trkpt lat="45.93145" lon="4.40082">
        <ele>714</ele>
        <time>2025-05-05T15:45:55Z</time>
      </trkpt>
      <trkpt lat="45.93102" lon="4.40059">
        <ele>716</ele>
        <time>2025-05-05T15:46:57Z</time>
      </trkpt>
      <trkpt lat="45.93099" lon="4.40037">
        <ele>715</ele>
        <time>2025-05-05T15:47:17Z</time>
      </trkpt>
      <trkpt lat="45.9312" lon="4.40006">
        <ele>717</ele>
        <time>2025-05-05T15:47:58Z</time>
      </trkpt>
      <trkpt lat="45.93147" lon="4.39934">
        <ele>722</ele>
        <time>2025-05-05T15:49:13Z</time>
      </trkpt>
      <trkpt lat="45.9319" lon="4.39864">
        <ele>733</ele>
        <time>2025-05-05T15:50:40Z</time>
      </trkpt>
      <trkpt lat="45.93222" lon="4.39778">
        <ele>746</ele>
        <time>2025-05-05T15:52:11Z</time>
      </trkpt>
      <trkpt lat="45.93398" lon="4.39367">
        <ele>769</ele>
        <time>2025-05-05T15:59:39Z</time>
      </trkpt>
      <trkpt lat="45.93374" lon="4.39337">
        <ele>765</ele>
        <time>2025-05-05T16:00:21Z</time>
      </trkpt>
      <trkpt lat="45.93373" lon="4.39228">
        <ele>768</ele>
        <time>2025-05-05T16:02:02Z</time>
      </trkpt>
      <trkpt lat="45.9336" lon="4.39138">
        <ele>774</ele>
        <time>2025-05-05T16:03:28Z</time>
      </trkpt>
      <trkpt lat="45.93255" lon="4.39026">
        <ele>768</ele>
        <time>2025-05-05T16:06:22Z</time>
      </trkpt>
      <trkpt lat="45.93182" lon="4.38977">
        <ele>763</ele>
        <time>2025-05-05T16:08:10Z</time>
      </trkpt>
      <trkpt lat="45.93133" lon="4.38944">
        <ele>757</ele>
        <time>2025-05-05T16:09:22Z</time>
      </trkpt>
      <trkpt lat="45.93085" lon="4.38895">
        <ele>751</ele>
        <time>2025-05-05T16:10:40Z</time>
      </trkpt>
      <trkpt lat="45.93093" lon="4.38863">
        <ele>752</ele>
        <time>2025-05-05T16:11:12Z</time>
      </trkpt>
      <trkpt lat="45.93111" lon="4.3883">
        <ele>756</ele>
        <time>2025-05-05T16:11:51Z</time>
      </trkpt>
      <trkpt lat="45.93182" lon="4.38785">
        <ele>764</ele>
        <time>2025-05-05T16:13:34Z</time>
      </trkpt>
      <trkpt lat="45.93199" lon="4.38855">
        <ele>771</ele>
        <time>2025-05-05T16:14:43Z</time>
      </trkpt>
      <trkpt lat="45.93218" lon="4.38871">
        <ele>774</ele>
        <time>2025-05-05T16:15:13Z</time>
      </trkpt>
      <trkpt lat="45.93373" lon="4.38864">
        <ele>804</ele>
        <time>2025-05-05T16:18:39Z</time>
      </trkpt>
      <trkpt lat="45.93493" lon="4.38858">
        <ele>822</ele>
        <time>2025-05-05T16:21:20Z</time>
      </trkpt>
      <trkpt lat="45.93538" lon="4.38842">
        <ele>830</ele>
        <time>2025-05-05T16:22:22Z</time>
      </trkpt>
      <trkpt lat="45.9366" lon="4.38749">
        <ele>859</ele>
        <time>2025-05-05T16:25:26Z</time>
      </trkpt>
      <trkpt lat="45.93693" lon="4.38723">
        <ele>855</ele>
        <time>2025-05-05T16:26:16Z</time>
      </trkpt>
      <trkpt lat="45.93715" lon="4.38717">
        <ele>853</ele>
        <time>2025-05-05T16:26:46Z</time>
      </trkpt>
      <trkpt lat="45.93762" lon="4.38756">
        <ele>854</ele>
        <time>2025-05-05T16:27:58Z</time>
      </trkpt>
      <trkpt lat="45.93792" lon="4.38784">
        <ele>851</ele>
        <time>2025-05-05T16:28:46Z</time>
      </trkpt>
      <trkpt lat="45.93823" lon="4.38814">
        <ele>848</ele>
        <time>2025-05-05T16:29:36Z</time>
      </trkpt>
      <trkpt lat="45.9387" lon="4.38837">
        <ele>846</ele>
        <time>2025-05-05T16:30:42Z</time>
      </trkpt>
      <trkpt lat="45.93937" lon="4.38866">
        <ele>849</ele>
        <time>2025-05-05T16:32:16Z</time>
      </trkpt>
      <trkpt lat="45.93996" lon="4.38917">
        <ele>859</ele>
        <time>2025-05-05T16:33:47Z</time>
      </trkpt>
      <trkpt lat="45.94047" lon="4.38945">
        <ele>860</ele>
        <time>2025-05-05T16:35:00Z</time>
      </trkpt>
      <trkpt lat="45.94156" lon="4.38949">
        <ele>860</ele>
        <time>2025-05-05T16:37:26Z</time>
      </trkpt>
      <trkpt lat="45.94185" lon="4.38958">
        <ele>860</ele>
        <time>2025-05-05T16:38:05Z</time>
      </trkpt>
      <trkpt lat="45.94252" lon="4.38992">
        <ele>861</ele>
        <time>2025-05-05T16:39:40Z</time>
      </trkpt>
      <trkpt lat="45.94316" lon="4.39026">
        <ele>861</ele>
        <time>2025-05-05T16:41:11Z</time>
      </trkpt>
      <trkpt lat="45.94362" lon="4.39035">
        <ele>862</ele>
        <time>2025-05-05T16:42:13Z</time>
      </trkpt>
      <trkpt lat="45.94419" lon="4.39011">
        <ele>864</ele>
        <time>2025-05-05T16:43:32Z</time>
      </trkpt>
      <trkpt lat="45.94455" lon="4.3899">
        <ele>863</ele>
        <time>2025-05-05T16:44:24Z</time>
      </trkpt>
      <trkpt lat="45.94488" lon="4.38955">
        <ele>860</ele>
        <time>2025-05-05T16:45:19Z</time>
      </trkpt>
      <trkpt lat="45.945" lon="4.38941">
        <ele>860</ele>
        <time>2025-05-05T16:45:40Z</time>
      </trkpt>
      <trkpt lat="45.94528" lon="4.38913">
        <ele>858</ele>
        <time>2025-05-05T16:46:25Z</time>
      </trkpt>
      <trkpt lat="45.94592" lon="4.38826">
        <ele>854</ele>
        <time>2025-05-05T16:48:23Z</time>
      </trkpt>
      <trkpt lat="45.94614" lon="4.38796">
        <ele>848</ele>
        <time>2025-05-05T16:49:03Z</time>
      </trkpt>
      <trkpt lat="45.94643" lon="4.38792">
        <ele>846</ele>
        <time>2025-05-05T16:49:42Z</time>
      </trkpt>
      <trkpt lat="45.94664" lon="4.38808">
        <ele>846</ele>
        <time>2025-05-05T16:50:14Z</time>
      </trkpt>
      <trkpt lat="45.94682" lon="4.38837">
        <ele>844</ele>
        <time>2025-05-05T16:50:50Z</time>
      </trkpt>
      <trkpt lat="45.94709" lon="4.38916">
        <ele>834</ele>
        <time>2025-05-05T16:52:11Z</time>
      </trkpt>
      <trkpt lat="45.9475" lon="4.38988">
        <ele>821</ele>
        <time>2025-05-05T16:53:38Z</time>
      </trkpt>
      <trkpt lat="45.94797" lon="4.38993">
        <ele>816</ele>
        <time>2025-05-05T16:54:41Z</time>
      </trkpt>
      <trkpt lat="45.94946" lon="4.39005">
        <ele>803</ele>
        <time>2025-05-05T16:58:00Z</time>
      </trkpt>
      <trkpt lat="45.94985" lon="4.39008">
        <ele>798</ele>
        <time>2025-05-05T16:58:52Z</time>
      </trkpt>
      <trkpt lat="45.95134" lon="4.38997">
        <ele>790</ele>
        <time>2025-05-05T17:02:11Z</time>
      </trkpt>
      <trkpt lat="45.95301" lon="4.38987">
        <ele>797</ele>
        <time>2025-05-05T17:05:54Z</time>
      </trkpt>
      <trkpt lat="45.95333" lon="4.3898">
        <ele>798</ele>
        <time>2025-05-05T17:06:37Z</time>
      </trkpt>
      <trkpt lat="45.95415" lon="4.38936">
        <ele>795</ele>
        <time>2025-05-05T17:08:34Z</time>
      </trkpt>
      <trkpt lat="45.95456" lon="4.38931">
        <ele>791</ele>
        <time>2025-05-05T17:09:29Z</time>
      </trkpt>
      <trkpt lat="45.95504" lon="4.38937">
        <ele>787</ele>
        <time>2025-05-05T17:10:33Z</time>
      </trkpt>
      <trkpt lat="45.95542" lon="4.38935">
        <ele>785</ele>
        <time>2025-05-05T17:11:24Z</time>
      </trkpt>
      <trkpt lat="45.95614" lon="4.38888">
        <ele>775</ele>
        <time>2025-05-05T17:13:10Z</time>
      </trkpt>
      <trkpt lat="45.95662" lon="4.38845">
        <ele>772</ele>
        <time>2025-05-05T17:14:25Z</time>
      </trkpt>
      <trkpt lat="45.95771" lon="4.38777">
        <ele>766</ele>
        <time>2025-05-05T17:17:04Z</time>
      </trkpt>
      <trkpt lat="45.95773" lon="4.38834">
        <ele>764</ele>
        <time>2025-05-05T17:17:56Z</time>
      </trkpt>
      <trkpt lat="45.95769" lon="4.38918">
        <ele>759</ele>
        <time>2025-05-05T17:19:15Z</time>
      </trkpt>
      <trkpt lat="45.95751" lon="4.39011">
        <ele>756</ele>
        <time>2025-05-05T17:20:44Z</time>
      </trkpt>
      <trkpt lat="45.95778" lon="4.39061">
        <ele>749</ele>
        <time>2025-05-05T17:21:43Z</time>
      </trkpt>
      <trkpt lat="45.95729" lon="4.39059">
        <ele>756</ele>
        <time>2025-05-05T17:22:48Z</time>
      </trkpt>
      <trkpt lat="45.95716" lon="4.39077">
        <ele>757</ele>
        <time>2025-05-05T17:23:12Z</time>
      </trkpt>
      <trkpt lat="45.9571" lon="4.39109">
        <ele>757</ele>
        <time>2025-05-05T17:23:43Z</time>
      </trkpt>
      <trkpt lat="45.95781" lon="4.39351">
        <ele>753</ele>
        <time>2025-05-05T17:27:47Z</time>
      </trkpt>
      <trkpt lat="45.95786" lon="4.39423">
        <ele>758</ele>
        <time>2025-05-05T17:28:54Z</time>
      </trkpt>
      <trkpt lat="45.95773" lon="4.39465">
        <ele>758</ele>
        <time>2025-05-05T17:29:37Z</time>
      </trkpt>
      <trkpt lat="45.95761" lon="4.39492">
        <ele>757</ele>
        <time>2025-05-05T17:30:06Z</time>
      </trkpt>
      <trkpt lat="45.95747" lon="4.39506">
        <ele>755</ele>
        <time>2025-05-05T17:30:29Z</time>
      </trkpt>
      <trkpt lat="45.95743" lon="4.39534">
        <ele>751</ele>
        <time>2025-05-05T17:30:56Z</time>
      </trkpt>
      <trkpt lat="45.95741" lon="4.39605">
        <ele>743</ele>
        <time>2025-05-05T17:32:02Z</time>
      </trkpt>
      <trkpt lat="45.95756" lon="4.39637">
        <ele>743</ele>
        <time>2025-05-05T17:32:37Z</time>
      </trkpt>
      <trkpt lat="45.95777" lon="4.39669">
        <ele>744</ele>
        <time>2025-05-05T17:33:18Z</time>
      </trkpt>
      <trkpt lat="45.95785" lon="4.39693">
        <ele>743</ele>
        <time>2025-05-05T17:33:43Z</time>
      </trkpt>
      <trkpt lat="45.95785" lon="4.39748">
        <ele>734</ele>
        <time>2025-05-05T17:34:34Z</time>
      </trkpt>
      <trkpt lat="45.958" lon="4.39806">
        <ele>737</ele>
        <time>2025-05-05T17:35:31Z</time>
      </trkpt>
      <trkpt lat="45.9579" lon="4.39814">
        <ele>733</ele>
        <time>2025-05-05T17:35:47Z</time>
      </trkpt>
      <trkpt lat="45.95761" lon="4.39795">
        <ele>724</ele>
        <time>2025-05-05T17:36:29Z</time>
      </trkpt>
      <trkpt lat="45.95708" lon="4.39781">
        <ele>711</ele>
        <time>2025-05-05T17:37:41Z</time>
      </trkpt>
      <trkpt lat="45.95671" lon="4.39792">
        <ele>700</ele>
        <time>2025-05-05T17:38:31Z</time>
      </trkpt>
      <trkpt lat="45.95635" lon="4.39784">
        <ele>695</ele>
        <time>2025-05-05T17:39:20Z</time>
      </trkpt>
      <trkpt lat="45.95622" lon="4.3979">
        <ele>692</ele>
        <time>2025-05-05T17:39:38Z</time>
      </trkpt>
      <trkpt lat="45.95608" lon="4.39827">
        <ele>684</ele>
        <time>2025-05-05T17:40:17Z</time>
      </trkpt>
      <trkpt lat="45.95593" lon="4.39845">
        <ele>680</ele>
        <time>2025-05-05T17:40:43Z</time>
      </trkpt>
      <trkpt lat="45.95579" lon="4.39851">
        <ele>677</ele>
        <time>2025-05-05T17:41:03Z</time>
      </trkpt>
      <trkpt lat="45.95512" lon="4.39883">
        <ele>667</ele>
        <time>2025-05-05T17:42:37Z</time>
      </trkpt>
      <trkpt lat="45.95459" lon="4.39887">
        <ele>665</ele>
        <time>2025-05-05T17:43:48Z</time>
      </trkpt>
      <trkpt lat="45.95419" lon="4.39904">
        <ele>660</ele>
        <time>2025-05-05T17:44:44Z</time>
      </trkpt>
      <trkpt lat="45.95358" lon="4.39931">
        <ele>657</ele>
        <time>2025-05-05T17:46:09Z</time>
      </trkpt>
      <trkpt lat="45.95303" lon="4.39968">
        <ele>647</ele>
        <time>2025-05-05T17:47:30Z</time>
      </trkpt>
      <trkpt lat="45.95281" lon="4.3997">
        <ele>645</ele>
        <time>2025-05-05T17:47:59Z</time>
      </trkpt>
      <trkpt lat="45.95266" lon="4.39961">
        <ele>645</ele>
        <time>2025-05-05T17:48:21Z</time>
      </trkpt>
      <trkpt lat="45.95243" lon="4.39883">
        <ele>649</ele>
        <time>2025-05-05T17:49:39Z</time>
      </trkpt>
      <trkpt lat="45.95221" lon="4.39832">
        <ele>652</ele>
        <time>2025-05-05T17:50:35Z</time>
      </trkpt>
      <trkpt lat="45.9521" lon="4.3981">
        <ele>654</ele>
        <time>2025-05-05T17:51:00Z</time>
      </trkpt>
      <trkpt lat="45.95195" lon="4.39797">
        <ele>654</ele>
        <time>2025-05-05T17:51:24Z</time>
      </trkpt>
      <trkpt lat="45.95183" lon="4.39809">
        <ele>650</ele>
        <time>2025-05-05T17:51:43Z</time>
      </trkpt>
      <trkpt lat="45.95161" lon="4.39911">
        <ele>634</ele>
        <time>2025-05-05T17:53:22Z</time>
      </trkpt>
      <trkpt lat="45.95132" lon="4.4001">
        <ele>628</ele>
        <time>2025-05-05T17:55:02Z</time>
      </trkpt>
      <trkpt lat="45.95103" lon="4.40149">
        <ele>606</ele>
        <time>2025-05-05T17:57:17Z</time>
      </trkpt>
      <trkpt lat="45.95088" lon="4.40209">
        <ele>596</ele>
        <time>2025-05-05T17:58:16Z</time>
      </trkpt>
      <trkpt lat="45.95069" lon="4.40231">
        <ele>591</ele>
        <time>2025-05-05T17:58:48Z</time>
      </trkpt>
      <trkpt lat="45.95077" lon="4.40238">
        <ele>590</ele>
        <time>2025-05-05T17:59:01Z</time>
      </trkpt>
      <trkpt lat="45.95099" lon="4.40247">
        <ele>587</ele>
        <time>2025-05-05T17:59:31Z</time>
      </trkpt>
      <trkpt lat="45.95105" lon="4.40251">
        <ele>586</ele>
        <time>2025-05-05T17:59:40Z</time>
      </trkpt>
      <trkpt lat="45.95102" lon="4.40263">
        <ele>584</ele>
        <time>2025-05-05T17:59:52Z</time>
      </trkpt>
      <trkpt lat="45.95083" lon="4.40285">
        <ele>580</ele>
        <time>2025-05-05T18:00:24Z</time>
      </trkpt>
      <trkpt lat="45.95061" lon="4.40317">
        <ele>573</ele>
        <time>2025-05-05T18:01:06Z</time>
      </trkpt>
      <trkpt lat="45.9504" lon="4.40317">
        <ele>572</ele>
        <time>2025-05-05T18:01:34Z</time>
      </trkpt>
      <trkpt lat="45.95021" lon="4.40315">
        <ele>572</ele>
        <time>2025-05-05T18:02:00Z</time>
      </trkpt>
      <trkpt lat="45.94978" lon="4.40309">
        <ele>574</ele>
        <time>2025-05-05T18:02:57Z</time>
      </trkpt>
      <trkpt lat="45.94946" lon="4.40288">
        <ele>580</ele>
        <time>2025-05-05T18:03:44Z</time>
      </trkpt>
      <trkpt lat="45.94925" lon="4.40281">
        <ele>582</ele>
        <time>2025-05-05T18:04:13Z</time>
      </trkpt>
      <trkpt lat="45.9492" lon="4.40289">
        <ele>582</ele>
        <time>2025-05-05T18:04:23Z</time>
      </trkpt>
      <trkpt lat="45.94925" lon="4.40345">
        <ele>578</ele>
        <time>2025-05-05T18:05:15Z</time>
      </trkpt>
      <trkpt lat="45.94932" lon="4.4039">
        <ele>574</ele>
        <time>2025-05-05T18:05:58Z</time>
      </trkpt>
      <trkpt lat="45.94927" lon="4.40446">
        <ele>569</ele>
        <time>2025-05-05T18:06:51Z</time>
      </trkpt>
      <trkpt lat="45.94911" lon="4.40456">
        <ele>570</ele>
        <time>2025-05-05T18:07:14Z</time>
      </trkpt>
      <trkpt lat="45.94893" lon="4.40434">
        <ele>578</ele>
        <time>2025-05-05T18:07:45Z</time>
      </trkpt>
      <trkpt lat="45.94838" lon="4.40431">
        <ele>590</ele>
        <time>2025-05-05T18:08:59Z</time>
      </trkpt>
      <trkpt lat="45.94813" lon="4.40439">
        <ele>595</ele>
        <time>2025-05-05T18:09:33Z</time>
      </trkpt>
      <trkpt lat="45.94763" lon="4.4045">
        <ele>605</ele>
        <time>2025-05-05T18:10:41Z</time>
      </trkpt>
      <trkpt lat="45.94717" lon="4.40486">
        <ele>602</ele>
        <time>2025-05-05T18:11:50Z</time>
      </trkpt>
      <trkpt lat="45.94736" lon="4.4055">
        <ele>594</ele>
        <time>2025-05-05T18:12:55Z</time>
      </trkpt>
      <trkpt lat="45.94728" lon="4.40611">
        <ele>599</ele>
        <time>2025-05-05T18:13:53Z</time>
      </trkpt>
      <trkpt lat="45.94719" lon="4.4065">
        <ele>605</ele>
        <time>2025-05-05T18:14:31Z</time>
      </trkpt>
      <trkpt lat="45.94684" lon="4.4071">
        <ele>619</ele>
        <time>2025-05-05T18:15:43Z</time>
      </trkpt>
      <trkpt lat="45.94656" lon="4.40809">
        <ele>634</ele>
        <time>2025-05-05T18:17:23Z</time>
      </trkpt>
      <trkpt lat="45.94626" lon="4.40863">
        <ele>643</ele>
        <time>2025-05-05T18:18:27Z</time>
      </trkpt>
      <trkpt lat="45.94569" lon="4.40917">
        <ele>644</ele>
        <time>2025-05-05T18:19:58Z</time>
      </trkpt>
      <trkpt lat="45.94522" lon="4.40923">
        <ele>638</ele>
        <time>2025-05-05T18:21:01Z</time>
      </trkpt>
      <trkpt lat="45.94454" lon="4.40867">
        <ele>641</ele>
        <time>2025-05-05T18:22:45Z</time>
      </trkpt>
      <trkpt lat="45.94466" lon="4.40927">
        <ele>631</ele>
        <time>2025-05-05T18:23:43Z</time>
      </trkpt>
      <trkpt lat="45.94462" lon="4.4099">
        <ele>623</ele>
        <time>2025-05-05T18:24:42Z</time>
      </trkpt>
      <trkpt lat="45.94486" lon="4.40997">
        <ele>623</ele>
        <time>2025-05-05T18:25:15Z</time>
      </trkpt>
      <trkpt lat="45.94498" lon="4.41049">
        <ele>614</ele>
        <time>2025-05-05T18:26:05Z</time>
      </trkpt>
      <trkpt lat="45.94468" lon="4.41083">
        <ele>608</ele>
        <time>2025-05-05T18:26:56Z</time>
      </trkpt>
      <trkpt lat="45.94448" lon="4.41131">
        <ele>600</ele>
        <time>2025-05-05T18:27:48Z</time>
      </trkpt>
      <trkpt lat="45.94412" lon="4.41172">
        <ele>592</ele>
        <time>2025-05-05T18:28:50Z</time>
      </trkpt>
      <trkpt lat="45.94408" lon="4.41191">
        <ele>591</ele>
        <time>2025-05-05T18:29:08Z</time>
      </trkpt>
      <trkpt lat="45.94438" lon="4.41218">
        <ele>586</ele>
        <time>2025-05-05T18:29:55Z</time>
      </trkpt>
      <trkpt lat="45.94497" lon="4.41222">
        <ele>584</ele>
        <time>2025-05-05T18:31:14Z</time>
      </trkpt>
      <trkpt lat="45.94514" lon="4.41312">
        <ele>574</ele>
        <time>2025-05-05T18:32:41Z</time>
      </trkpt>
      <trkpt lat="45.94513" lon="4.41419">
        <ele>564</ele>
        <time>2025-05-05T18:34:20Z</time>
      </trkpt>
      <trkpt lat="45.94497" lon="4.41538">
        <ele>542</ele>
        <time>2025-05-05T18:36:12Z</time>
      </trkpt>
      <trkpt lat="45.9457" lon="4.4174">
        <ele>530</ele>
        <time>2025-05-05T18:39:44Z</time>
      </trkpt>
      <trkpt lat="45.94673" lon="4.41838">
        <ele>521</ele>
        <time>2025-05-05T18:42:28Z</time>
      </trkpt>
      <trkpt lat="45.9479" lon="4.41972">
        <ele>507</ele>
        <time>2025-05-05T18:45:48Z</time>
      </trkpt>
      <trkpt lat="45.94834" lon="4.42045">
        <ele>490</ele>
        <time>2025-05-05T18:47:18Z</time>
      </trkpt>
      <trkpt lat="45.94835" lon="4.4208">
        <ele>486</ele>
        <time>2025-05-05T18:47:50Z</time>
      </trkpt>
      <trkpt lat="45.9488" lon="4.42164">
        <ele>478</ele>
        <time>2025-05-05T18:49:29Z</time>
      </trkpt>
      <trkpt lat="45.94914" lon="4.4237">
        <ele>460</ele>
        <time>2025-05-05T18:52:45Z</time>
      </trkpt>
      <trkpt lat="45.94845" lon="4.4253">
        <ele>463</ele>
        <time>2025-05-05T18:55:40Z</time>
      </trkpt>
      <trkpt lat="45.94869" lon="4.42542">
        <ele>461</ele>
        <time>2025-05-05T18:56:14Z</time>
      </trkpt>
      <trkpt lat="45.94889" lon="4.42575">
        <ele>460</ele>
        <time>2025-05-05T18:56:54Z</time>
      </trkpt>
      <trkpt lat="45.94859" lon="4.42661">
        <ele>461</ele>
        <time>2025-05-05T18:58:24Z</time>
      </trkpt>
      <trkpt lat="45.94758" lon="4.42765">
        <ele>456</ele>
        <time>2025-05-05T19:01:09Z</time>
      </trkpt>
      <trkpt lat="45.94674" lon="4.42847">
        <ele>452</ele>
        <time>2025-05-05T19:03:25Z</time>
      </trkpt>
      <trkpt lat="45.94649" lon="4.42842">
        <ele>451</ele>
        <time>2025-05-05T19:03:58Z</time>
      </trkpt>
      <trkpt lat="45.94586" lon="4.42919">
        <ele>448</ele>
        <time>2025-05-05T19:05:49Z</time>
      </trkpt>
      <trkpt lat="45.94525" lon="4.43028">
        <ele>450</ele>
        <time>2025-05-05T19:07:59Z</time>
      </trkpt>
      <trkpt lat="45.94437" lon="4.43178">
        <ele>446</ele>
        <time>2025-05-05T19:11:01Z</time>
      </trkpt>
      <trkpt lat="45.94371" lon="4.43318">
        <ele>441</ele>
        <time>2025-05-05T19:13:38Z</time>
      </trkpt>
      <trkpt lat="45.94342" lon="4.43415">
        <ele>442</ele>
        <time>2025-05-05T19:15:16Z</time>
      </trkpt>
      <trkpt lat="45.94383" lon="4.43413">
        <ele>445</ele>
        <time>2025-05-05T19:16:10Z</time>
        <extensions>
          <visugpx:TrkExtension xmlns:visugpx="https://www.visugpx.com/editgpx/">
            <visugpx:node>1</visugpx:node>
            </visugpx:TrkExtension>
        </extensions>
      </trkpt>
    </trkseg>
  </trk>
</gpx>